sensor_id;sensor_type;location;lat;lon;timestamp;P1;durP1;ratioP1;P2;durP2;ratioP2
52268;SDS011;38224;50.950;4.100;2023-04-29T00:01:12;93.77;;;48.47;;
52268;SDS011;38224;50.950;4.100;2023-04-29T00:03:37;77.90;;;44.20;;
52268;SDS011;38224;50.950;4.100;2023-04-29T00:06:03;78.95;;;42.22;;
52268;SDS011;38224;50.950;4.100;2023-04-29T00:08:28;77.38;;;42.47;;
52268;SDS011;38224;50.950;4.100;2023-04-29T00:10:53;78.57;;;41.73;;
52268;SDS011;38224;50.950;4.100;2023-04-29T00:13:19;75.72;;;43.20;;
52268;SDS011;38224;50.950;4.100;2023-04-29T00:15:45;83.70;;;42.35;;
52268;SDS011;38224;50.950;4.100;2023-04-29T00:18:10;81.63;;;44.30;;
52268;SDS011;38224;50.950;4.100;2023-04-29T00:20:36;74.60;;;42.00;;
52268;SDS011;38224;50.950;4.100;2023-04-29T00:23:04;83.38;;;41.33;;
52268;SDS011;38224;50.950;4.100;2023-04-29T00:25:30;81.13;;;43.35;;
52268;SDS011;38224;50.950;4.100;2023-04-29T00:27:55;86.32;;;44.08;;
52268;SDS011;38224;50.950;4.100;2023-04-29T00:30:23;78.13;;;42.60;;
52268;SDS011;38224;50.950;4.100;2023-04-29T00:32:49;79.90;;;43.75;;
52268;SDS011;38224;50.950;4.100;2023-04-29T00:35:14;87.57;;;44.53;;
52268;SDS011;38224;50.950;4.100;2023-04-29T00:37:40;84.60;;;41.70;;
52268;SDS011;38224;50.950;4.100;2023-04-29T00:40:06;81.55;;;43.05;;
52268;SDS011;38224;50.950;4.100;2023-04-29T00:42:32;75.43;;;39.55;;
52268;SDS011;38224;50.950;4.100;2023-04-29T00:44:58;71.88;;;39.63;;
52268;SDS011;38224;50.950;4.100;2023-04-29T00:47:23;84.85;;;42.60;;
52268;SDS011;38224;50.950;4.100;2023-04-29T00:49:48;82.47;;;40.90;;
52268;SDS011;38224;50.950;4.100;2023-04-29T00:52:14;86.82;;;42.58;;
52268;SDS011;38224;50.950;4.100;2023-04-29T00:54:40;73.60;;;40.05;;
52268;SDS011;38224;50.950;4.100;2023-04-29T00:57:06;72.93;;;39.33;;
52268;SDS011;38224;50.950;4.100;2023-04-29T00:59:31;87.47;;;39.42;;
52268;SDS011;38224;50.950;4.100;2023-04-29T01:01:58;79.35;;;42.10;;
52268;SDS011;38224;50.950;4.100;2023-04-29T01:04:24;81.00;;;39.58;;
52268;SDS011;38224;50.950;4.100;2023-04-29T01:14:37;78.30;;;39.25;;
52268;SDS011;38224;50.950;4.100;2023-04-29T01:17:09;81.85;;;40.30;;
52268;SDS011;38224;50.950;4.100;2023-04-29T01:19:53;79.88;;;40.15;;
52268;SDS011;38224;50.950;4.100;2023-04-29T01:22:20;78.40;;;41.25;;
52268;SDS011;38224;50.950;4.100;2023-04-29T01:24:46;76.20;;;38.47;;
52268;SDS011;38224;50.950;4.100;2023-04-29T01:27:32;91.30;;;43.75;;
52268;SDS011;38224;50.950;4.100;2023-04-29T01:30:04;79.28;;;41.85;;
52268;SDS011;38224;50.950;4.100;2023-04-29T01:40:19;76.10;;;38.92;;
52268;SDS011;38224;50.950;4.100;2023-04-29T01:43:02;92.03;;;46.53;;
52268;SDS011;38224;50.950;4.100;2023-04-29T01:45:28;69.95;;;37.88;;
52268;SDS011;38224;50.950;4.100;2023-04-29T01:47:54;68.30;;;38.05;;
52268;SDS011;38224;50.950;4.100;2023-04-29T01:50:21;73.47;;;38.42;;
52268;SDS011;38224;50.950;4.100;2023-04-29T01:52:46;63.20;;;35.22;;
52268;SDS011;38224;50.950;4.100;2023-04-29T01:55:11;64.90;;;35.23;;
52268;SDS011;38224;50.950;4.100;2023-04-29T01:57:37;64.10;;;34.28;;
52268;SDS011;38224;50.950;4.100;2023-04-29T02:00:02;66.75;;;35.03;;
52268;SDS011;38224;50.950;4.100;2023-04-29T02:02:28;62.22;;;34.78;;
52268;SDS011;38224;50.950;4.100;2023-04-29T02:04:54;61.65;;;36.53;;
52268;SDS011;38224;50.950;4.100;2023-04-29T02:07:19;67.50;;;34.95;;
52268;SDS011;38224;50.950;4.100;2023-04-29T02:09:45;58.10;;;35.00;;
52268;SDS011;38224;50.950;4.100;2023-04-29T02:12:10;62.13;;;35.08;;
52268;SDS011;38224;50.950;4.100;2023-04-29T02:14:35;63.67;;;35.80;;
52268;SDS011;38224;50.950;4.100;2023-04-29T02:17:00;61.77;;;37.70;;
52268;SDS011;38224;50.950;4.100;2023-04-29T02:19:26;60.42;;;35.45;;
52268;SDS011;38224;50.950;4.100;2023-04-29T02:21:51;59.67;;;36.73;;
52268;SDS011;38224;50.950;4.100;2023-04-29T02:24:16;71.93;;;38.25;;
52268;SDS011;38224;50.950;4.100;2023-04-29T02:26:42;58.13;;;35.43;;
52268;SDS011;38224;50.950;4.100;2023-04-29T02:29:07;56.77;;;37.30;;
52268;SDS011;38224;50.950;4.100;2023-04-29T02:31:32;60.20;;;36.90;;
52268;SDS011;38224;50.950;4.100;2023-04-29T02:33:57;54.85;;;35.60;;
52268;SDS011;38224;50.950;4.100;2023-04-29T02:36:24;59.53;;;34.58;;
52268;SDS011;38224;50.950;4.100;2023-04-29T02:38:49;60.88;;;34.97;;
52268;SDS011;38224;50.950;4.100;2023-04-29T02:41:15;62.35;;;36.95;;
52268;SDS011;38224;50.950;4.100;2023-04-29T02:43:40;59.92;;;34.45;;
52268;SDS011;38224;50.950;4.100;2023-04-29T02:46:06;60.97;;;36.93;;
52268;SDS011;38224;50.950;4.100;2023-04-29T02:48:31;63.83;;;35.53;;
52268;SDS011;38224;50.950;4.100;2023-04-29T02:50:56;56.95;;;33.90;;
52268;SDS011;38224;50.950;4.100;2023-04-29T02:53:21;50.57;;;33.83;;
52268;SDS011;38224;50.950;4.100;2023-04-29T02:55:47;46.78;;;30.23;;
52268;SDS011;38224;50.950;4.100;2023-04-29T02:58:12;45.10;;;28.38;;
52268;SDS011;38224;50.950;4.100;2023-04-29T03:00:39;38.87;;;25.50;;
52268;SDS011;38224;50.950;4.100;2023-04-29T03:03:04;33.92;;;22.02;;
52268;SDS011;38224;50.950;4.100;2023-04-29T03:05:29;27.20;;;18.10;;
52268;SDS011;38224;50.950;4.100;2023-04-29T03:07:55;27.70;;;18.98;;
52268;SDS011;38224;50.950;4.100;2023-04-29T03:10:21;34.37;;;19.10;;
52268;SDS011;38224;50.950;4.100;2023-04-29T03:12:46;34.20;;;20.07;;
52268;SDS011;38224;50.950;4.100;2023-04-29T03:15:11;31.58;;;20.27;;
52268;SDS011;38224;50.950;4.100;2023-04-29T03:17:37;36.97;;;21.50;;
52268;SDS011;38224;50.950;4.100;2023-04-29T03:20:03;30.65;;;20.33;;
52268;SDS011;38224;50.950;4.100;2023-04-29T03:22:28;34.95;;;20.90;;
52268;SDS011;38224;50.950;4.100;2023-04-29T03:24:53;32.58;;;20.58;;
52268;SDS011;38224;50.950;4.100;2023-04-29T03:27:19;35.30;;;20.20;;
52268;SDS011;38224;50.950;4.100;2023-04-29T03:29:44;40.73;;;22.93;;
52268;SDS011;38224;50.950;4.100;2023-04-29T03:32:09;39.10;;;22.93;;
52268;SDS011;38224;50.950;4.100;2023-04-29T03:34:34;44.80;;;24.60;;
52268;SDS011;38224;50.950;4.100;2023-04-29T03:37:00;54.13;;;27.20;;
52268;SDS011;38224;50.950;4.100;2023-04-29T03:39:26;53.20;;;28.45;;
52268;SDS011;38224;50.950;4.100;2023-04-29T03:41:56;48.15;;;28.30;;
52268;SDS011;38224;50.950;4.100;2023-04-29T03:44:21;54.47;;;29.83;;
52268;SDS011;38224;50.950;4.100;2023-04-29T03:46:46;55.80;;;29.63;;
52268;SDS011;38224;50.950;4.100;2023-04-29T03:49:12;62.27;;;29.80;;
52268;SDS011;38224;50.950;4.100;2023-04-29T03:51:37;62.30;;;30.55;;
52268;SDS011;38224;50.950;4.100;2023-04-29T03:54:03;58.25;;;29.45;;
52268;SDS011;38224;50.950;4.100;2023-04-29T03:56:28;58.03;;;32.80;;
52268;SDS011;38224;50.950;4.100;2023-04-29T03:58:53;58.33;;;31.95;;
52268;SDS011;38224;50.950;4.100;2023-04-29T04:01:18;54.23;;;29.63;;
52268;SDS011;38224;50.950;4.100;2023-04-29T04:03:44;52.83;;;31.07;;
52268;SDS011;38224;50.950;4.100;2023-04-29T04:06:09;58.10;;;32.35;;
52268;SDS011;38224;50.950;4.100;2023-04-29T04:08:35;61.17;;;32.03;;
52268;SDS011;38224;50.950;4.100;2023-04-29T04:11:00;58.33;;;31.70;;
52268;SDS011;38224;50.950;4.100;2023-04-29T04:13:30;58.65;;;30.40;;
52268;SDS011;38224;50.950;4.100;2023-04-29T04:15:55;59.28;;;32.28;;
52268;SDS011;38224;50.950;4.100;2023-04-29T04:18:21;64.72;;;29.98;;
52268;SDS011;38224;50.950;4.100;2023-04-29T04:20:46;52.17;;;26.73;;
52268;SDS011;38224;50.950;4.100;2023-04-29T04:23:12;42.77;;;24.57;;
52268;SDS011;38224;50.950;4.100;2023-04-29T04:25:37;43.13;;;23.20;;
52268;SDS011;38224;50.950;4.100;2023-04-29T04:28:02;43.53;;;21.90;;
52268;SDS011;38224;50.950;4.100;2023-04-29T04:30:27;42.88;;;21.73;;
52268;SDS011;38224;50.950;4.100;2023-04-29T04:32:53;39.45;;;20.98;;
52268;SDS011;38224;50.950;4.100;2023-04-29T04:35:18;32.30;;;19.07;;
52268;SDS011;38224;50.950;4.100;2023-04-29T04:37:43;31.75;;;20.02;;
52268;SDS011;38224;50.950;4.100;2023-04-29T04:40:09;32.40;;;18.45;;
52268;SDS011;38224;50.950;4.100;2023-04-29T04:42:35;30.33;;;18.25;;
52268;SDS011;38224;50.950;4.100;2023-04-29T04:45:01;30.57;;;17.97;;
52268;SDS011;38224;50.950;4.100;2023-04-29T04:47:26;30.45;;;18.67;;
52268;SDS011;38224;50.950;4.100;2023-04-29T04:49:52;27.10;;;18.20;;
52268;SDS011;38224;50.950;4.100;2023-04-29T04:52:20;29.88;;;20.20;;
52268;SDS011;38224;50.950;4.100;2023-04-29T04:54:46;42.78;;;20.70;;
52268;SDS011;38224;50.950;4.100;2023-04-29T04:57:11;40.65;;;22.75;;
52268;SDS011;38224;50.950;4.100;2023-04-29T04:59:37;38.25;;;21.67;;
52268;SDS011;38224;50.950;4.100;2023-04-29T05:02:02;38.85;;;21.27;;
52268;SDS011;38224;50.950;4.100;2023-04-29T05:04:27;41.83;;;21.70;;
52268;SDS011;38224;50.950;4.100;2023-04-29T05:06:52;39.30;;;21.58;;
52268;SDS011;38224;50.950;4.100;2023-04-29T05:09:18;39.35;;;20.33;;
52268;SDS011;38224;50.950;4.100;2023-04-29T05:11:43;41.87;;;21.00;;
52268;SDS011;38224;50.950;4.100;2023-04-29T05:14:08;34.43;;;20.77;;
52268;SDS011;38224;50.950;4.100;2023-04-29T05:16:33;38.17;;;20.93;;
52268;SDS011;38224;50.950;4.100;2023-04-29T05:18:59;35.17;;;19.58;;
52268;SDS011;38224;50.950;4.100;2023-04-29T05:21:24;35.67;;;20.70;;
52268;SDS011;38224;50.950;4.100;2023-04-29T05:23:49;35.55;;;21.17;;
52268;SDS011;38224;50.950;4.100;2023-04-29T05:26:15;37.92;;;21.30;;
52268;SDS011;38224;50.950;4.100;2023-04-29T05:28:40;36.93;;;22.97;;
52268;SDS011;38224;50.950;4.100;2023-04-29T05:31:05;33.05;;;21.80;;
52268;SDS011;38224;50.950;4.100;2023-04-29T05:33:31;37.92;;;21.83;;
52268;SDS011;38224;50.950;4.100;2023-04-29T05:35:56;37.03;;;21.67;;
52268;SDS011;38224;50.950;4.100;2023-04-29T05:38:21;38.57;;;21.50;;
52268;SDS011;38224;50.950;4.100;2023-04-29T05:40:52;37.50;;;22.35;;
52268;SDS011;38224;50.950;4.100;2023-04-29T05:43:18;36.73;;;22.50;;
52268;SDS011;38224;50.950;4.100;2023-04-29T05:45:45;34.30;;;22.03;;
52268;SDS011;38224;50.950;4.100;2023-04-29T05:48:10;41.83;;;23.95;;
52268;SDS011;38224;50.950;4.100;2023-04-29T05:50:35;40.17;;;24.33;;
52268;SDS011;38224;50.950;4.100;2023-04-29T05:53:01;43.90;;;23.83;;
52268;SDS011;38224;50.950;4.100;2023-04-29T05:55:26;43.15;;;23.38;;
52268;SDS011;38224;50.950;4.100;2023-04-29T05:57:51;39.85;;;24.63;;
52268;SDS011;38224;50.950;4.100;2023-04-29T06:00:16;40.17;;;24.70;;
52268;SDS011;38224;50.950;4.100;2023-04-29T06:02:42;43.47;;;24.77;;
52268;SDS011;38224;50.950;4.100;2023-04-29T06:05:07;38.97;;;22.48;;
52268;SDS011;38224;50.950;4.100;2023-04-29T06:07:32;37.78;;;23.48;;
52268;SDS011;38224;50.950;4.100;2023-04-29T06:09:58;41.03;;;23.20;;
52268;SDS011;38224;50.950;4.100;2023-04-29T06:12:23;47.92;;;23.63;;
52268;SDS011;38224;50.950;4.100;2023-04-29T06:14:48;47.57;;;25.87;;
52268;SDS011;38224;50.950;4.100;2023-04-29T06:17:14;42.58;;;23.60;;
52268;SDS011;38224;50.950;4.100;2023-04-29T06:19:39;37.73;;;23.50;;
52268;SDS011;38224;50.950;4.100;2023-04-29T06:22:04;35.15;;;21.95;;
52268;SDS011;38224;50.950;4.100;2023-04-29T06:24:30;40.13;;;22.87;;
52268;SDS011;38224;50.950;4.100;2023-04-29T06:26:55;39.13;;;22.23;;
52268;SDS011;38224;50.950;4.100;2023-04-29T06:29:20;38.03;;;21.90;;
52268;SDS011;38224;50.950;4.100;2023-04-29T06:31:46;35.45;;;21.58;;
52268;SDS011;38224;50.950;4.100;2023-04-29T06:34:11;41.13;;;23.23;;
52268;SDS011;38224;50.950;4.100;2023-04-29T06:36:37;31.90;;;22.80;;
52268;SDS011;38224;50.950;4.100;2023-04-29T06:39:02;36.08;;;23.50;;
52268;SDS011;38224;50.950;4.100;2023-04-29T06:41:27;40.58;;;24.83;;
52268;SDS011;38224;50.950;4.100;2023-04-29T06:43:53;43.20;;;23.00;;
52268;SDS011;38224;50.950;4.100;2023-04-29T06:46:18;35.97;;;23.08;;
52268;SDS011;38224;50.950;4.100;2023-04-29T06:48:43;40.78;;;22.00;;
52268;SDS011;38224;50.950;4.100;2023-04-29T06:51:09;41.67;;;22.38;;
52268;SDS011;38224;50.950;4.100;2023-04-29T06:53:35;33.25;;;22.48;;
52268;SDS011;38224;50.950;4.100;2023-04-29T06:56:00;41.30;;;22.92;;
52268;SDS011;38224;50.950;4.100;2023-04-29T06:58:25;41.55;;;23.17;;
52268;SDS011;38224;50.950;4.100;2023-04-29T07:00:51;38.83;;;23.60;;
52268;SDS011;38224;50.950;4.100;2023-04-29T07:03:16;42.65;;;23.15;;
52268;SDS011;38224;50.950;4.100;2023-04-29T07:05:42;37.95;;;23.35;;
52268;SDS011;38224;50.950;4.100;2023-04-29T07:08:09;41.85;;;24.52;;
52268;SDS011;38224;50.950;4.100;2023-04-29T07:10:35;36.17;;;22.70;;
52268;SDS011;38224;50.950;4.100;2023-04-29T07:13:00;41.38;;;23.90;;
52268;SDS011;38224;50.950;4.100;2023-04-29T07:15:26;47.47;;;25.27;;
52268;SDS011;38224;50.950;4.100;2023-04-29T07:17:51;40.97;;;24.85;;
52268;SDS011;38224;50.950;4.100;2023-04-29T07:20:16;42.75;;;24.45;;
52268;SDS011;38224;50.950;4.100;2023-04-29T07:22:42;42.90;;;24.58;;
52268;SDS011;38224;50.950;4.100;2023-04-29T07:25:07;43.35;;;22.98;;
52268;SDS011;38224;50.950;4.100;2023-04-29T07:27:33;42.72;;;24.85;;
52268;SDS011;38224;50.950;4.100;2023-04-29T07:29:59;41.97;;;24.15;;
52268;SDS011;38224;50.950;4.100;2023-04-29T07:32:25;48.35;;;25.67;;
52268;SDS011;38224;50.950;4.100;2023-04-29T07:34:50;33.75;;;23.90;;
52268;SDS011;38224;50.950;4.100;2023-04-29T07:37:16;49.30;;;25.60;;
52268;SDS011;38224;50.950;4.100;2023-04-29T07:39:42;34.92;;;25.42;;
52268;SDS011;38224;50.950;4.100;2023-04-29T07:42:07;41.17;;;25.23;;
52268;SDS011;38224;50.950;4.100;2023-04-29T07:44:32;42.00;;;25.60;;
52268;SDS011;38224;50.950;4.100;2023-04-29T07:46:57;44.28;;;26.90;;
52268;SDS011;38224;50.950;4.100;2023-04-29T07:49:23;42.78;;;25.30;;
52268;SDS011;38224;50.950;4.100;2023-04-29T07:51:50;52.10;;;25.35;;
52268;SDS011;38224;50.950;4.100;2023-04-29T07:54:15;48.03;;;25.90;;
52268;SDS011;38224;50.950;4.100;2023-04-29T07:56:40;44.60;;;24.98;;
52268;SDS011;38224;50.950;4.100;2023-04-29T07:59:06;42.25;;;25.30;;
52268;SDS011;38224;50.950;4.100;2023-04-29T08:01:31;43.70;;;25.17;;
52268;SDS011;38224;50.950;4.100;2023-04-29T08:03:57;43.80;;;23.58;;
52268;SDS011;38224;50.950;4.100;2023-04-29T08:06:22;47.27;;;25.90;;
52268;SDS011;38224;50.950;4.100;2023-04-29T08:08:48;41.15;;;22.50;;
52268;SDS011;38224;50.950;4.100;2023-04-29T08:11:17;41.83;;;23.30;;
52268;SDS011;38224;50.950;4.100;2023-04-29T08:13:42;36.78;;;20.40;;
52268;SDS011;38224;50.950;4.100;2023-04-29T08:16:07;33.60;;;21.27;;
52268;SDS011;38224;50.950;4.100;2023-04-29T08:18:33;36.17;;;20.45;;
52268;SDS011;38224;50.950;4.100;2023-04-29T08:20:59;29.60;;;20.33;;
52268;SDS011;38224;50.950;4.100;2023-04-29T08:23:25;36.42;;;20.58;;
52268;SDS011;38224;50.950;4.100;2023-04-29T08:25:50;37.03;;;20.75;;
52268;SDS011;38224;50.950;4.100;2023-04-29T08:28:16;36.13;;;20.95;;
52268;SDS011;38224;50.950;4.100;2023-04-29T08:30:41;33.85;;;21.05;;
52268;SDS011;38224;50.950;4.100;2023-04-29T08:33:07;29.98;;;19.75;;
52268;SDS011;38224;50.950;4.100;2023-04-29T08:35:32;34.58;;;21.48;;
52268;SDS011;38224;50.950;4.100;2023-04-29T08:37:57;33.15;;;19.38;;
52268;SDS011;38224;50.950;4.100;2023-04-29T08:40:23;30.55;;;18.58;;
52268;SDS011;38224;50.950;4.100;2023-04-29T08:42:48;30.25;;;18.98;;
52268;SDS011;38224;50.950;4.100;2023-04-29T08:45:14;31.98;;;19.13;;
52268;SDS011;38224;50.950;4.100;2023-04-29T08:47:41;35.65;;;20.30;;
52268;SDS011;38224;50.950;4.100;2023-04-29T08:50:07;33.75;;;19.42;;
52268;SDS011;38224;50.950;4.100;2023-04-29T08:52:33;32.17;;;18.60;;
52268;SDS011;38224;50.950;4.100;2023-04-29T08:54:58;31.37;;;19.63;;
52268;SDS011;38224;50.950;4.100;2023-04-29T08:57:25;30.30;;;18.63;;
52268;SDS011;38224;50.950;4.100;2023-04-29T08:59:50;33.60;;;18.52;;
52268;SDS011;38224;50.950;4.100;2023-04-29T09:02:15;34.47;;;19.50;;
52268;SDS011;38224;50.950;4.100;2023-04-29T09:07:27;28.63;;;18.80;;
52268;SDS011;38224;50.950;4.100;2023-04-29T09:09:52;30.92;;;18.75;;
52268;SDS011;38224;50.950;4.100;2023-04-29T09:12:19;30.67;;;17.85;;
52268;SDS011;38224;50.950;4.100;2023-04-29T09:14:44;31.93;;;18.23;;
52268;SDS011;38224;50.950;4.100;2023-04-29T09:17:09;27.77;;;19.50;;
52268;SDS011;38224;50.950;4.100;2023-04-29T09:19:35;30.48;;;18.65;;
52268;SDS011;38224;50.950;4.100;2023-04-29T09:22:04;31.73;;;19.70;;
52268;SDS011;38224;50.950;4.100;2023-04-29T09:24:31;32.85;;;18.90;;
52268;SDS011;38224;50.950;4.100;2023-04-29T09:26:56;27.23;;;17.83;;
52268;SDS011;38224;50.950;4.100;2023-04-29T09:29:22;29.55;;;16.67;;
52268;SDS011;38224;50.950;4.100;2023-04-29T09:31:48;24.25;;;17.85;;
52268;SDS011;38224;50.950;4.100;2023-04-29T09:34:13;25.60;;;17.38;;
52268;SDS011;38224;50.950;4.100;2023-04-29T09:39:06;32.75;;;18.05;;
52268;SDS011;38224;50.950;4.100;2023-04-29T09:41:36;29.52;;;18.63;;
52268;SDS011;38224;50.950;4.100;2023-04-29T09:44:01;29.23;;;18.52;;
52268;SDS011;38224;50.950;4.100;2023-04-29T09:46:28;27.65;;;17.58;;
52268;SDS011;38224;50.950;4.100;2023-04-29T09:48:53;31.38;;;18.10;;
52268;SDS011;38224;50.950;4.100;2023-04-29T09:51:19;27.60;;;15.75;;
52268;SDS011;38224;50.950;4.100;2023-04-29T09:53:44;31.93;;;17.47;;
52268;SDS011;38224;50.950;4.100;2023-04-29T09:56:10;28.98;;;17.35;;
52268;SDS011;38224;50.950;4.100;2023-04-29T09:58:35;27.93;;;18.37;;
52268;SDS011;38224;50.950;4.100;2023-04-29T10:01:01;27.33;;;17.33;;
52268;SDS011;38224;50.950;4.100;2023-04-29T10:03:34;23.98;;;17.00;;
52268;SDS011;38224;50.950;4.100;2023-04-29T10:05:59;26.10;;;17.23;;
52268;SDS011;38224;50.950;4.100;2023-04-29T10:08:26;25.23;;;15.88;;
52268;SDS011;38224;50.950;4.100;2023-04-29T10:10:51;23.25;;;15.60;;
52268;SDS011;38224;50.950;4.100;2023-04-29T10:13:22;23.17;;;16.27;;
52268;SDS011;38224;50.950;4.100;2023-04-29T10:15:48;22.10;;;16.08;;
52268;SDS011;38224;50.950;4.100;2023-04-29T10:18:20;25.70;;;15.90;;
52268;SDS011;38224;50.950;4.100;2023-04-29T10:20:45;23.33;;;16.38;;
52268;SDS011;38224;50.950;4.100;2023-04-29T10:23:12;22.80;;;15.02;;
52268;SDS011;38224;50.950;4.100;2023-04-29T10:25:38;24.77;;;17.13;;
52268;SDS011;38224;50.950;4.100;2023-04-29T10:28:04;25.73;;;17.10;;
52268;SDS011;38224;50.950;4.100;2023-04-29T10:30:30;23.40;;;16.23;;
52268;SDS011;38224;50.950;4.100;2023-04-29T10:32:55;27.15;;;17.65;;
52268;SDS011;38224;50.950;4.100;2023-04-29T10:35:23;27.90;;;17.05;;
52268;SDS011;38224;50.950;4.100;2023-04-29T10:37:49;24.45;;;17.17;;
52268;SDS011;38224;50.950;4.100;2023-04-29T10:40:27;20.90;;;16.88;;
52268;SDS011;38224;50.950;4.100;2023-04-29T10:42:55;23.15;;;15.93;;
52268;SDS011;38224;50.950;4.100;2023-04-29T10:45:30;24.67;;;16.88;;
52268;SDS011;38224;50.950;4.100;2023-04-29T10:51:17;25.50;;;16.83;;
52268;SDS011;38224;50.950;4.100;2023-04-29T10:53:18;25.52;;;18.05;;
52268;SDS011;38224;50.950;4.100;2023-04-29T10:55:47;28.95;;;18.48;;
52268;SDS011;38224;50.950;4.100;2023-04-29T11:00:57;24.10;;;17.55;;
52268;SDS011;38224;50.950;4.100;2023-04-29T11:06:09;21.88;;;15.50;;
52268;SDS011;38224;50.950;4.100;2023-04-29T11:08:38;21.40;;;15.82;;
52268;SDS011;38224;50.950;4.100;2023-04-29T11:11:09;22.17;;;15.43;;
52268;SDS011;38224;50.950;4.100;2023-04-29T11:13:38;18.95;;;14.65;;
52268;SDS011;38224;50.950;4.100;2023-04-29T11:18:29;20.17;;;14.57;;
52268;SDS011;38224;50.950;4.100;2023-04-29T11:23:28;23.50;;;15.48;;
52268;SDS011;38224;50.950;4.100;2023-04-29T11:25:54;22.02;;;14.90;;
52268;SDS011;38224;50.950;4.100;2023-04-29T11:28:20;20.98;;;15.20;;
52268;SDS011;38224;50.950;4.100;2023-04-29T11:30:45;19.70;;;13.43;;
52268;SDS011;38224;50.950;4.100;2023-04-29T11:33:11;17.83;;;14.18;;
52268;SDS011;38224;50.950;4.100;2023-04-29T11:35:38;20.27;;;14.80;;
52268;SDS011;38224;50.950;4.100;2023-04-29T11:38:03;18.58;;;14.82;;
52268;SDS011;38224;50.950;4.100;2023-04-29T11:40:29;21.13;;;13.05;;
52268;SDS011;38224;50.950;4.100;2023-04-29T11:42:56;19.05;;;13.07;;
52268;SDS011;38224;50.950;4.100;2023-04-29T11:45:21;16.40;;;13.63;;
52268;SDS011;38224;50.950;4.100;2023-04-29T11:47:47;21.63;;;14.75;;
52268;SDS011;38224;50.950;4.100;2023-04-29T11:50:13;21.08;;;15.13;;
52268;SDS011;38224;50.950;4.100;2023-04-29T11:52:40;23.50;;;15.43;;
52268;SDS011;38224;50.950;4.100;2023-04-29T11:55:09;21.00;;;15.85;;
52268;SDS011;38224;50.950;4.100;2023-04-29T11:57:35;20.15;;;15.90;;
52268;SDS011;38224;50.950;4.100;2023-04-29T12:00:01;22.33;;;16.08;;
52268;SDS011;38224;50.950;4.100;2023-04-29T12:02:29;19.08;;;15.15;;
52268;SDS011;38224;50.950;4.100;2023-04-29T12:04:55;23.30;;;15.45;;
52268;SDS011;38224;50.950;4.100;2023-04-29T12:07:22;21.23;;;15.13;;
52268;SDS011;38224;50.950;4.100;2023-04-29T12:09:47;20.85;;;14.80;;
52268;SDS011;38224;50.950;4.100;2023-04-29T12:12:13;18.98;;;14.90;;
52268;SDS011;38224;50.950;4.100;2023-04-29T12:14:38;20.90;;;15.30;;
52268;SDS011;38224;50.950;4.100;2023-04-29T12:17:04;19.92;;;14.57;;
52268;SDS011;38224;50.950;4.100;2023-04-29T12:19:30;17.23;;;14.63;;
52268;SDS011;38224;50.950;4.100;2023-04-29T12:21:58;19.05;;;13.48;;
52268;SDS011;38224;50.950;4.100;2023-04-29T12:24:24;19.70;;;13.52;;
52268;SDS011;38224;50.950;4.100;2023-04-29T12:26:49;22.02;;;15.52;;
52268;SDS011;38224;50.950;4.100;2023-04-29T12:29:15;20.42;;;14.55;;
52268;SDS011;38224;50.950;4.100;2023-04-29T12:31:40;19.42;;;14.30;;
52268;SDS011;38224;50.950;4.100;2023-04-29T12:34:06;23.23;;;14.93;;
52268;SDS011;38224;50.950;4.100;2023-04-29T12:36:32;21.52;;;13.93;;
52268;SDS011;38224;50.950;4.100;2023-04-29T12:38:58;19.50;;;13.93;;
52268;SDS011;38224;50.950;4.100;2023-04-29T12:41:36;19.17;;;13.77;;
52268;SDS011;38224;50.950;4.100;2023-04-29T12:44:03;20.88;;;12.88;;
52268;SDS011;38224;50.950;4.100;2023-04-29T12:46:33;22.30;;;13.98;;
52268;SDS011;38224;50.950;4.100;2023-04-29T12:49:00;17.92;;;13.00;;
52268;SDS011;38224;50.950;4.100;2023-04-29T12:51:26;18.70;;;13.55;;
52268;SDS011;38224;50.950;4.100;2023-04-29T12:53:51;16.40;;;12.43;;
52268;SDS011;38224;50.950;4.100;2023-04-29T12:56:16;17.23;;;11.17;;
52268;SDS011;38224;50.950;4.100;2023-04-29T12:58:45;16.40;;;12.00;;
52268;SDS011;38224;50.950;4.100;2023-04-29T13:01:10;17.42;;;12.65;;
52268;SDS011;38224;50.950;4.100;2023-04-29T13:03:36;16.83;;;12.75;;
52268;SDS011;38224;50.950;4.100;2023-04-29T13:06:01;20.00;;;14.18;;
52268;SDS011;38224;50.950;4.100;2023-04-29T13:08:27;17.63;;;12.57;;
52268;SDS011;38224;50.950;4.100;2023-04-29T13:10:52;20.33;;;13.23;;
52268;SDS011;38224;50.950;4.100;2023-04-29T13:13:17;17.30;;;12.85;;
52268;SDS011;38224;50.950;4.100;2023-04-29T13:15:43;18.90;;;13.52;;
52268;SDS011;38224;50.950;4.100;2023-04-29T13:18:08;19.97;;;12.60;;
52268;SDS011;38224;50.950;4.100;2023-04-29T13:20:33;18.63;;;13.47;;
52268;SDS011;38224;50.950;4.100;2023-04-29T13:23:02;18.33;;;13.52;;
52268;SDS011;38224;50.950;4.100;2023-04-29T13:25:27;17.73;;;13.93;;
52268;SDS011;38224;50.950;4.100;2023-04-29T13:27:52;19.45;;;14.32;;
52268;SDS011;38224;50.950;4.100;2023-04-29T13:30:18;19.40;;;13.90;;
52268;SDS011;38224;50.950;4.100;2023-04-29T13:32:43;20.63;;;14.00;;
52268;SDS011;38224;50.950;4.100;2023-04-29T13:35:08;22.27;;;15.32;;
52268;SDS011;38224;50.950;4.100;2023-04-29T13:37:34;20.27;;;15.60;;
52268;SDS011;38224;50.950;4.100;2023-04-29T13:39:59;20.60;;;15.80;;
52268;SDS011;38224;50.950;4.100;2023-04-29T13:42:24;19.30;;;14.50;;
52268;SDS011;38224;50.950;4.100;2023-04-29T13:44:50;19.75;;;14.98;;
52268;SDS011;38224;50.950;4.100;2023-04-29T13:47:17;20.30;;;14.45;;
52268;SDS011;38224;50.950;4.100;2023-04-29T13:49:43;20.85;;;14.68;;
52268;SDS011;38224;50.950;4.100;2023-04-29T13:52:08;26.33;;;15.90;;
52268;SDS011;38224;50.950;4.100;2023-04-29T13:54:34;21.60;;;15.15;;
52268;SDS011;38224;50.950;4.100;2023-04-29T13:57:00;19.83;;;15.68;;
52268;SDS011;38224;50.950;4.100;2023-04-29T13:59:31;24.52;;;16.42;;
52268;SDS011;38224;50.950;4.100;2023-04-29T14:01:57;22.42;;;15.27;;
52268;SDS011;38224;50.950;4.100;2023-04-29T14:04:23;26.70;;;16.92;;
52268;SDS011;38224;50.950;4.100;2023-04-29T14:06:49;22.70;;;17.00;;
52268;SDS011;38224;50.950;4.100;2023-04-29T14:09:14;24.63;;;17.10;;
52268;SDS011;38224;50.950;4.100;2023-04-29T14:11:40;24.45;;;17.13;;
52268;SDS011;38224;50.950;4.100;2023-04-29T14:14:06;25.70;;;16.33;;
52268;SDS011;38224;50.950;4.100;2023-04-29T14:16:31;18.55;;;15.63;;
52268;SDS011;38224;50.950;4.100;2023-04-29T14:18:56;24.55;;;15.45;;
52268;SDS011;38224;50.950;4.100;2023-04-29T14:21:22;20.48;;;14.55;;
52268;SDS011;38224;50.950;4.100;2023-04-29T14:23:48;25.38;;;15.98;;
52268;SDS011;38224;50.950;4.100;2023-04-29T14:26:13;19.55;;;14.98;;
52268;SDS011;38224;50.950;4.100;2023-04-29T14:28:38;20.63;;;15.05;;
52268;SDS011;38224;50.950;4.100;2023-04-29T14:31:04;22.77;;;15.65;;
52268;SDS011;38224;50.950;4.100;2023-04-29T14:33:29;22.90;;;15.10;;
52268;SDS011;38224;50.950;4.100;2023-04-29T14:35:54;22.00;;;14.02;;
52268;SDS011;38224;50.950;4.100;2023-04-29T14:38:20;23.83;;;13.82;;
52268;SDS011;38224;50.950;4.100;2023-04-29T14:40:45;26.53;;;15.10;;
52268;SDS011;38224;50.950;4.100;2023-04-29T14:43:11;24.77;;;14.60;;
52268;SDS011;38224;50.950;4.100;2023-04-29T14:45:36;18.08;;;13.80;;
52268;SDS011;38224;50.950;4.100;2023-04-29T14:48:01;18.80;;;14.67;;